createdAt,value
2023-02-04T00:01:58.539Z,3.13
2023-02-04T00:04:25.082Z,3.13
2023-02-04T00:06:51.610Z,3.09
2023-02-04T00:09:18.166Z,3.08
2023-02-04T00:11:45.632Z,3.07
2023-02-04T00:14:12.284Z,3.03
2023-02-04T00:16:38.903Z,3.01
2023-02-04T00:19:05.409Z,2.98
2023-02-04T00:21:31.926Z,2.98
2023-02-04T00:23:58.649Z,2.98
2023-02-04T00:26:25.173Z,2.99
2023-02-04T00:28:51.699Z,2.98
2023-02-04T00:31:18.324Z,2.97
2023-02-04T00:33:44.892Z,2.98
2023-02-04T00:36:11.401Z,3.00
2023-02-04T00:38:37.942Z,3.07
2023-02-04T00:41:04.819Z,3.09
2023-02-04T00:43:31.341Z,3.09
2023-02-04T00:45:57.946Z,3.13
2023-02-04T00:48:26.516Z,3.13
2023-02-04T00:50:54.146Z,3.13
2023-02-04T00:53:20.914Z,3.16
2023-02-04T00:55:47.486Z,3.18
2023-02-04T00:58:14.047Z,3.20
2023-02-04T01:00:40.623Z,3.25
2023-02-04T01:03:07.242Z,3.28
2023-02-04T01:05:33.854Z,3.30
2023-02-04T01:08:00.367Z,3.34
2023-02-04T01:10:27.020Z,3.30
2023-02-04T01:12:53.692Z,3.23
2023-02-04T01:15:20.295Z,3.20
2023-02-04T01:17:46.849Z,3.21
2023-02-04T01:20:13.507Z,3.21
2023-02-04T01:22:40.115Z,3.14
2023-02-04T01:25:07.269Z,3.15
2023-02-04T01:27:33.829Z,3.13
2023-02-04T01:30:00.427Z,3.17
2023-02-04T01:32:26.984Z,3.18
2023-02-04T01:34:53.979Z,3.12
2023-02-04T01:37:21.107Z,3.10
2023-02-04T01:39:47.653Z,3.11
2023-02-04T01:42:14.313Z,3.14
2023-02-04T01:44:41.038Z,3.15
2023-02-04T01:47:07.735Z,3.11
2023-02-04T01:49:34.420Z,3.09
2023-02-04T01:52:02.510Z,3.08
2023-02-04T01:54:29.232Z,3.12
2023-02-04T01:56:56.088Z,3.09
2023-02-04T01:59:23.268Z,3.05
2023-02-04T02:01:52.352Z,3.04
2023-02-04T02:04:23.006Z,3.10
2023-02-04T02:06:53.816Z,3.12
2023-02-04T02:09:20.468Z,3.10
2023-02-04T02:11:47.931Z,3.15
2023-02-04T02:14:15.242Z,3.18
2023-02-04T02:16:41.938Z,3.17
2023-02-04T02:19:12.555Z,3.17
2023-02-04T02:21:55.080Z,3.17
2023-02-04T02:24:29.979Z,3.14
2023-02-04T02:26:59.681Z,3.13
2023-02-04T02:29:27.233Z,3.11
2023-02-04T02:31:57.540Z,3.09
2023-02-04T02:34:25.772Z,3.08
2023-02-04T02:36:52.532Z,3.06
2023-02-04T02:39:19.689Z,3.03
2023-02-04T02:41:46.643Z,3.02
2023-02-04T02:44:15.436Z,2.99
2023-02-04T02:46:41.977Z,2.97
2023-02-04T02:49:15.679Z,2.97
2023-02-04T02:51:42.464Z,3.00
2023-02-04T02:54:21.363Z,2.94
2023-02-04T02:56:48.141Z,2.87
2023-02-04T02:59:16.321Z,2.82
2023-02-04T03:01:44.035Z,2.78
2023-02-04T03:04:11.428Z,2.82
2023-02-04T03:06:38.696Z,2.78
2023-02-04T03:09:05.301Z,2.77
2023-02-04T03:11:32.657Z,2.76
2023-02-04T03:14:04.017Z,2.73
2023-02-04T03:16:34.167Z,2.69
2023-02-04T03:19:01.796Z,2.65
2023-02-04T03:21:29.150Z,2.59
2023-02-04T03:23:56.811Z,2.64
2023-02-04T03:26:25.195Z,2.64
2023-02-04T03:28:53.488Z,2.57
2023-02-04T03:31:20.613Z,2.48
2023-02-04T03:33:47.225Z,2.48
2023-02-04T03:36:13.829Z,2.50
2023-02-04T03:38:41.324Z,2.50
2023-02-04T03:41:07.914Z,2.51
2023-02-04T03:43:34.445Z,2.58
2023-02-04T03:46:00.958Z,2.50
2023-02-04T03:48:27.474Z,2.43
2023-02-04T03:50:54.018Z,2.49
2023-02-04T03:53:22.127Z,2.53
2023-02-04T03:55:48.653Z,2.53
2023-02-04T03:58:15.200Z,2.51
2023-02-04T04:00:41.800Z,2.46
2023-02-04T04:03:08.441Z,2.43
2023-02-04T04:05:35.196Z,2.48
2023-02-04T04:08:01.919Z,2.51
2023-02-04T04:10:29.596Z,2.54
2023-02-04T04:12:56.606Z,2.63
2023-02-04T04:15:23.287Z,2.60
2023-02-04T04:17:49.840Z,2.60
2023-02-04T04:20:16.738Z,2.54
2023-02-04T04:22:43.274Z,2.54
2023-02-04T04:25:09.793Z,2.48
2023-02-04T04:27:36.345Z,2.44
2023-02-04T04:30:03.911Z,2.39
2023-02-04T04:32:30.421Z,2.36
2023-02-04T04:34:57.032Z,2.31
2023-02-04T04:37:23.579Z,2.36
2023-02-04T04:39:50.119Z,2.37
2023-02-04T04:42:16.628Z,2.38
2023-02-04T04:44:43.144Z,2.30
2023-02-04T04:47:09.659Z,2.15
2023-02-04T04:49:36.201Z,2.03
2023-02-04T04:52:02.776Z,1.97
2023-02-04T04:54:29.263Z,1.93
2023-02-04T04:56:55.809Z,1.70
2023-02-04T04:59:22.316Z,1.34
2023-02-04T05:01:48.899Z,1.13
2023-02-04T05:04:15.416Z,0.87
2023-02-04T05:06:41.937Z,0.70
2023-02-04T05:09:09.721Z,0.58
2023-02-04T05:11:36.316Z,0.44
2023-02-04T05:14:02.836Z,0.38
2023-02-04T05:16:29.434Z,0.36
2023-02-04T05:18:56.009Z,0.28
2023-02-04T05:21:22.537Z,0.26
2023-02-04T05:23:49.077Z,0.14
2023-02-04T05:26:28.486Z,0.00
2023-02-04T05:28:56.248Z,0.01
2023-02-04T05:31:22.864Z,-0.03
2023-02-04T05:33:49.435Z,-0.07
2023-02-04T05:36:16.008Z,-0.12
2023-02-04T05:38:42.539Z,-0.17
2023-02-04T05:41:09.170Z,-0.13
2023-02-04T05:43:35.733Z,-0.18
2023-02-04T05:46:02.862Z,-0.17
2023-02-04T05:48:29.375Z,-0.19
2023-02-04T05:50:55.870Z,-0.23
2023-02-04T05:53:22.371Z,-0.32
2023-02-04T05:55:48.959Z,-0.36
2023-02-04T05:58:15.528Z,-0.42
2023-02-04T06:00:43.165Z,-0.49
2023-02-04T06:03:09.778Z,-0.56
2023-02-04T06:05:36.341Z,-0.59
2023-02-04T06:08:02.958Z,-0.61
2023-02-04T06:10:29.885Z,-0.60
2023-02-04T06:12:56.543Z,-0.57
2023-02-04T06:15:23.299Z,-0.56
2023-02-04T06:17:49.812Z,-0.50
2023-02-04T06:20:16.495Z,-0.44
2023-02-04T06:22:43.028Z,-0.38
2023-02-04T06:25:09.549Z,-0.40
2023-02-04T06:27:36.078Z,-0.34
2023-02-04T06:30:02.726Z,-0.32
2023-02-04T06:32:29.302Z,-0.29
2023-02-04T06:34:55.885Z,-0.28
2023-02-04T06:37:24.307Z,-0.26
2023-02-04T06:39:51.900Z,-0.29
2023-02-04T06:42:18.503Z,-0.27
2023-02-04T06:44:45.018Z,-0.20
2023-02-04T06:47:11.619Z,-0.18
2023-02-04T06:49:38.204Z,-0.15
2023-02-04T06:52:05.699Z,-0.16
2023-02-04T06:54:32.252Z,-0.11
2023-02-04T06:57:06.457Z,-0.12
2023-02-04T06:59:37.872Z,-0.03
2023-02-04T07:02:05.962Z,-0.01
2023-02-04T07:04:32.719Z,-0.01
2023-02-04T07:06:59.398Z,-0.00
2023-02-04T07:09:25.972Z,0.09
2023-02-04T07:11:52.513Z,0.07
2023-02-04T07:14:19.061Z,0.05
2023-02-04T07:16:45.752Z,0.00
2023-02-04T07:19:12.650Z,-0.06
2023-02-04T07:21:39.155Z,-0.02
2023-02-04T07:24:05.903Z,0.01
2023-02-04T07:26:32.438Z,0.08
2023-02-04T07:28:58.994Z,0.01
2023-02-04T07:31:25.689Z,0.05
2023-02-04T07:33:52.228Z,0.08
2023-02-04T07:36:18.739Z,0.01
2023-02-04T07:38:45.265Z,-0.04
2023-02-04T07:41:11.816Z,-0.01
2023-02-04T07:43:38.404Z,0.02
2023-02-04T07:46:05.088Z,0.05
2023-02-04T07:48:31.647Z,0.04
2023-02-04T07:50:58.194Z,-0.00
2023-02-04T07:53:24.792Z,-0.02
2023-02-04T07:55:51.285Z,-0.17
2023-02-04T07:58:17.864Z,-0.16
2023-02-04T08:00:44.392Z,-0.17
2023-02-04T08:03:10.872Z,-0.19
2023-02-04T08:05:37.388Z,-0.29
2023-02-04T08:08:03.873Z,-0.25
2023-02-04T08:10:30.845Z,-0.20
2023-02-04T08:12:57.512Z,-0.28
2023-02-04T08:15:24.001Z,-0.25
2023-02-04T08:17:50.532Z,-0.22
2023-02-04T08:20:18.418Z,-0.13
2023-02-04T08:22:45.004Z,-0.04
2023-02-04T08:25:12.904Z,-0.04
2023-02-04T08:27:39.527Z,-0.10
2023-02-04T08:30:06.936Z,-0.10
2023-02-04T08:32:33.535Z,-0.24
2023-02-04T08:35:00.163Z,-0.27
2023-02-04T08:37:26.712Z,-0.23
2023-02-04T08:39:53.286Z,-0.17
2023-02-04T08:42:19.991Z,-0.15
2023-02-04T08:44:46.479Z,-0.15
2023-02-04T08:47:13.246Z,-0.12
2023-02-04T08:49:39.860Z,-0.09
2023-02-04T08:52:07.952Z,0.03
2023-02-04T08:54:35.668Z,0.06
2023-02-04T08:57:03.031Z,0.09
2023-02-04T08:59:29.732Z,0.22
2023-02-04T09:01:56.363Z,0.37
2023-02-04T09:04:24.092Z,0.47
2023-02-04T09:06:51.545Z,0.52
2023-02-04T09:09:18.298Z,0.68
2023-02-04T09:11:44.900Z,0.76
2023-02-04T09:14:11.567Z,0.75
2023-02-04T09:16:38.159Z,0.81
2023-02-04T09:19:05.586Z,0.87
2023-02-04T09:21:32.226Z,0.82
2023-02-04T09:23:58.781Z,0.74
2023-02-04T09:26:25.306Z,0.67
2023-02-04T09:28:51.836Z,0.53
2023-02-04T09:31:18.884Z,0.51
2023-02-04T09:33:45.653Z,0.57
2023-02-04T09:36:12.264Z,0.51
2023-02-04T09:38:38.862Z,0.40
2023-02-04T09:41:08.535Z,0.42
2023-02-04T09:43:39.642Z,0.45
2023-02-04T09:46:13.364Z,0.34
2023-02-04T09:48:39.826Z,0.27
2023-02-04T09:51:08.276Z,0.20
2023-02-04T09:53:36.640Z,0.06
2023-02-04T09:56:03.282Z,0.11
2023-02-04T09:58:34.441Z,0.07
2023-02-04T10:01:18.557Z,0.01
2023-02-04T10:03:50.261Z,-0.02
2023-02-04T10:06:22.137Z,-0.05
2023-02-04T10:08:50.878Z,-0.11
2023-02-04T10:11:19.545Z,-0.01
2023-02-04T10:13:52.315Z,0.03
2023-02-04T10:16:29.942Z,0.00
2023-02-04T10:19:05.057Z,0.02
2023-02-04T10:21:33.020Z,0.12
2023-02-04T10:24:02.741Z,0.19
2023-02-04T10:26:31.647Z,0.20
2023-02-04T10:29:13.324Z,0.17
2023-02-04T10:31:49.086Z,0.33
2023-02-04T10:34:39.588Z,0.37
2023-02-04T10:37:20.948Z,0.35
2023-02-04T10:39:48.843Z,0.18
2023-02-04T10:42:26.847Z,0.18
2023-02-04T10:44:53.503Z,0.29
2023-02-04T10:47:23.041Z,0.44
2023-02-04T10:50:07.586Z,0.61
2023-02-04T10:52:44.128Z,0.72
2023-02-04T10:55:17.689Z,0.75
2023-02-04T10:57:46.877Z,0.73
2023-02-04T11:00:19.448Z,0.60
2023-02-04T11:02:53.832Z,0.47
2023-02-04T11:05:29.870Z,0.42
2023-02-04T11:07:56.701Z,0.56
2023-02-04T11:10:32.628Z,0.58
2023-02-04T11:13:05.623Z,0.51
2023-02-04T11:15:51.055Z,0.55
2023-02-04T11:18:20.471Z,0.49
2023-02-04T11:20:49.799Z,0.47
2023-02-04T11:23:29.850Z,0.58
2023-02-04T11:26:14.694Z,0.68
2023-02-04T11:28:41.125Z,0.74
2023-02-04T11:31:25.328Z,0.85
2023-02-04T11:34:11.635Z,0.89
2023-02-04T11:36:59.740Z,0.93
2023-02-04T11:39:36.069Z,0.80
2023-02-04T11:42:03.178Z,0.66
2023-02-04T11:44:30.292Z,0.50
2023-02-04T11:46:58.520Z,0.45
2023-02-04T11:49:27.170Z,0.45
2023-02-04T11:52:08.709Z,0.52
2023-02-04T11:54:36.462Z,0.64
2023-02-04T11:57:03.507Z,0.67
2023-02-04T11:59:30.082Z,0.66
2023-02-04T12:02:17.232Z,0.72
2023-02-04T12:05:09.931Z,0.79
2023-02-04T12:07:36.716Z,0.83
2023-02-04T12:10:25.762Z,0.99
2023-02-04T12:12:57.679Z,1.13
2023-02-04T12:15:33.484Z,1.23
2023-02-04T12:18:07.900Z,1.31
2023-02-04T12:20:38.662Z,1.30
2023-02-04T12:23:05.905Z,1.24
2023-02-04T12:25:32.806Z,1.18
2023-02-04T12:27:59.466Z,1.14
2023-02-04T12:30:26.968Z,1.13
2023-02-04T12:32:53.629Z,1.16
2023-02-04T12:35:20.424Z,1.12
2023-02-04T12:37:46.937Z,1.16
2023-02-04T12:40:17.945Z,1.32
2023-02-04T12:42:44.820Z,1.39
2023-02-04T12:45:12.938Z,1.41
2023-02-04T12:47:40.252Z,1.52
2023-02-04T12:50:08.558Z,1.53
2023-02-04T12:52:36.921Z,1.55
2023-02-04T12:55:05.027Z,1.58
2023-02-04T12:57:32.627Z,1.57
2023-02-04T13:00:01.427Z,1.54
2023-02-04T13:02:29.040Z,1.54
2023-02-04T13:04:55.864Z,1.48
2023-02-04T13:07:23.237Z,1.49
2023-02-04T13:09:49.885Z,1.43
2023-02-04T13:12:16.573Z,1.40
2023-02-04T13:14:43.842Z,1.43
2023-02-04T13:17:10.823Z,1.45
2023-02-04T13:19:37.492Z,1.39
2023-02-04T13:22:04.245Z,1.39
2023-02-04T13:24:31.032Z,1.57
2023-02-04T13:26:57.595Z,1.58
2023-02-04T13:29:24.155Z,1.58
2023-02-04T13:31:52.134Z,1.66
2023-02-04T13:34:19.606Z,1.73
2023-02-04T13:36:46.247Z,1.67
2023-02-04T13:39:12.779Z,1.52
2023-02-04T13:41:39.319Z,1.39
2023-02-04T13:44:05.965Z,1.24
2023-02-04T13:46:33.381Z,1.04
2023-02-04T13:48:59.981Z,0.91
2023-02-04T13:51:26.620Z,0.97
2023-02-04T13:53:53.164Z,1.08
2023-02-04T13:56:19.709Z,1.17
2023-02-04T13:58:46.259Z,1.23
2023-02-04T14:01:14.220Z,1.20
2023-02-04T14:03:42.785Z,1.11
2023-02-04T14:06:09.867Z,1.00
2023-02-04T14:08:36.826Z,0.98
2023-02-04T14:11:03.710Z,0.88
2023-02-04T14:13:30.212Z,0.77
2023-02-04T14:15:57.176Z,0.71
2023-02-04T14:18:23.705Z,0.69
2023-02-04T14:20:50.289Z,0.73
2023-02-04T14:23:16.790Z,0.71
2023-02-04T14:25:43.296Z,0.68
2023-02-04T14:28:10.146Z,0.69
2023-02-04T14:30:37.040Z,0.64
2023-02-04T14:33:03.909Z,0.66
2023-02-04T14:35:31.969Z,0.65
2023-02-04T14:37:58.865Z,0.58
2023-02-04T14:40:25.387Z,0.52
2023-02-04T14:42:51.909Z,0.61
2023-02-04T14:45:18.627Z,0.51
2023-02-04T14:47:45.356Z,0.47
2023-02-04T14:50:15.300Z,0.45
2023-02-04T14:52:42.325Z,0.43
2023-02-04T14:55:11.777Z,0.41
2023-02-04T14:57:38.507Z,0.43
2023-02-04T15:00:06.991Z,0.36
2023-02-04T15:02:33.708Z,0.36
2023-02-04T15:05:00.258Z,0.20
2023-02-04T15:07:26.766Z,0.07
2023-02-04T15:09:53.452Z,-0.13
2023-02-04T15:12:19.952Z,-0.16
2023-02-04T15:14:46.579Z,-0.40
2023-02-04T15:17:13.115Z,-0.53
2023-02-04T15:19:39.655Z,-0.61
2023-02-04T15:22:06.233Z,-0.62
2023-02-04T15:24:32.785Z,-0.53
2023-02-04T15:26:59.318Z,-0.35
2023-02-04T15:29:26.327Z,-0.24
2023-02-04T15:31:52.966Z,-0.27
2023-02-04T15:34:19.706Z,-0.31
2023-02-04T15:36:46.270Z,-0.41
2023-02-04T15:39:12.866Z,-0.52
2023-02-04T15:41:39.428Z,-0.56
2023-02-04T15:44:05.994Z,-0.57
2023-02-04T15:46:34.311Z,-0.62
2023-02-04T15:49:01.529Z,-0.66
2023-02-04T15:51:28.070Z,-0.69
2023-02-04T15:53:54.672Z,-0.76
2023-02-04T15:56:21.389Z,-0.87
2023-02-04T15:58:47.964Z,-0.91
2023-02-04T16:01:15.722Z,-0.95
2023-02-04T16:03:44.617Z,-0.96
2023-02-04T16:06:11.456Z,-0.96
2023-02-04T16:08:38.886Z,-0.96
2023-02-04T16:11:06.222Z,-0.99
2023-02-04T16:13:33.047Z,-1.03
2023-02-04T16:15:59.645Z,-1.17
2023-02-04T16:18:26.432Z,-1.20
2023-02-04T16:20:52.990Z,-1.18
2023-02-04T16:23:19.582Z,-1.16
2023-02-04T16:25:46.064Z,-1.15
2023-02-04T16:28:12.844Z,-1.12
2023-02-04T16:30:39.526Z,-1.08
2023-02-04T16:33:06.934Z,-1.22
2023-02-04T16:36:01.141Z,-1.26
2023-02-04T16:38:28.601Z,-1.30
2023-02-04T16:40:55.369Z,-1.30
2023-02-04T16:43:22.994Z,-1.29
2023-02-04T16:45:49.801Z,-1.29
2023-02-04T16:48:16.964Z,-1.27
2023-02-04T16:50:43.608Z,-1.28
2023-02-04T16:53:15.994Z,-1.31
2023-02-04T16:55:43.892Z,-1.36
2023-02-04T16:58:11.661Z,-1.36
2023-02-04T17:00:41.892Z,-1.31
2023-02-04T17:03:09.398Z,-1.30
2023-02-04T17:05:36.004Z,-1.41
2023-02-04T17:08:02.605Z,-1.45
2023-02-04T17:10:47.985Z,-1.39
2023-02-04T17:13:14.546Z,-1.39
2023-02-04T17:15:41.216Z,-1.44
2023-02-04T17:18:08.156Z,-1.40
2023-02-04T17:20:34.981Z,-1.42
2023-02-04T17:23:01.581Z,-1.39
2023-02-04T17:25:28.130Z,-1.39
2023-02-04T17:27:56.498Z,-1.36
2023-02-04T17:30:23.131Z,-1.29
2023-02-04T17:32:49.756Z,-1.19
2023-02-04T17:35:17.373Z,-1.13
2023-02-04T17:37:44.060Z,-1.09
2023-02-04T17:40:14.428Z,-1.08
2023-02-04T17:42:41.070Z,-1.04
2023-02-04T17:45:10.473Z,-1.10
2023-02-04T17:47:40.044Z,-1.10
2023-02-04T17:50:09.994Z,-0.97
2023-02-04T17:52:37.926Z,-0.88
2023-02-04T17:55:28.741Z,-0.86
2023-02-04T17:57:59.952Z,-0.82
2023-02-04T18:00:29.507Z,-0.80
2023-02-04T18:02:56.846Z,-0.79
2023-02-04T18:05:28.669Z,-0.81
2023-02-04T18:08:38.463Z,-0.74
2023-02-04T18:11:15.553Z,-0.77
2023-02-04T18:13:42.361Z,-0.74
2023-02-04T18:16:31.153Z,-0.69
2023-02-04T18:19:10.211Z,-0.72
2023-02-04T18:21:37.057Z,-0.73
2023-02-04T18:24:09.671Z,-0.76
2023-02-04T18:26:45.008Z,-0.72
2023-02-04T18:29:34.110Z,-0.65
2023-02-04T18:32:03.092Z,-0.67
2023-02-04T18:34:39.037Z,-0.63
2023-02-04T18:37:23.464Z,-0.52
2023-02-04T18:39:50.046Z,-0.48
2023-02-04T18:42:24.841Z,-0.46
2023-02-04T18:44:52.562Z,-0.36
2023-02-04T18:47:32.902Z,-0.40
2023-02-04T18:50:01.324Z,-0.36
2023-02-04T18:52:36.415Z,-0.40
2023-02-04T18:55:11.404Z,-0.43
2023-02-04T18:57:39.696Z,-0.43
2023-02-04T19:00:08.995Z,-0.47
2023-02-04T19:02:46.392Z,-0.42
2023-02-04T19:05:42.644Z,-0.46
2023-02-04T19:08:17.587Z,-0.52
2023-02-04T19:10:44.182Z,-0.50
2023-02-04T19:13:26.106Z,-0.38
2023-02-04T19:16:03.641Z,-0.27
2023-02-04T19:18:37.777Z,-0.25
2023-02-04T19:21:22.250Z,-0.35
2023-02-04T19:23:50.831Z,-0.40
2023-02-04T19:26:34.149Z,-0.47
2023-02-04T19:29:01.430Z,-0.48
2023-02-04T19:31:34.715Z,-0.45
2023-02-04T19:34:21.418Z,-0.47
2023-02-04T19:36:47.992Z,-0.43
2023-02-04T19:39:39.412Z,-0.47
2023-02-04T19:42:32.988Z,-0.57
2023-02-04T19:45:02.159Z,-0.64
2023-02-04T19:47:37.824Z,-0.56
2023-02-04T19:50:13.480Z,-0.49
2023-02-04T19:52:46.830Z,-0.51
2023-02-04T19:55:41.704Z,-0.50
2023-02-04T19:58:14.390Z,-0.41
2023-02-04T20:00:46.473Z,-0.36
2023-02-04T20:03:18.848Z,-0.30
2023-02-04T20:05:45.377Z,-0.26
2023-02-04T20:08:41.554Z,-0.27
2023-02-04T20:11:29.928Z,-0.30
2023-02-04T20:14:18.593Z,-0.39
2023-02-04T20:17:12.989Z,-0.43
2023-02-04T20:19:41.161Z,-0.46
2023-02-04T20:22:23.575Z,-0.51
2023-02-04T20:24:51.924Z,-0.52
2023-02-04T20:27:36.498Z,-0.62
2023-02-04T20:30:09.808Z,-0.64
2023-02-04T20:32:43.476Z,-0.68
2023-02-04T20:35:09.929Z,-0.65
2023-02-04T20:37:36.692Z,-0.79
2023-02-04T20:40:35.289Z,-0.78
2023-02-04T20:43:21.400Z,-0.71
2023-02-04T20:45:55.178Z,-0.66
2023-02-04T20:48:28.313Z,-0.63
2023-02-04T20:50:56.551Z,-0.77
2023-02-04T20:53:28.377Z,-0.85
2023-02-04T20:56:14.117Z,-0.93
2023-02-04T20:58:46.214Z,-0.90
2023-02-04T21:01:37.792Z,-0.88
2023-02-04T21:04:30.676Z,-0.89
2023-02-04T21:07:03.906Z,-1.04
2023-02-04T21:09:32.702Z,-1.32
2023-02-04T21:12:01.194Z,-1.46
2023-02-04T21:14:29.275Z,-1.55
2023-02-04T21:16:56.326Z,-1.55
2023-02-04T21:19:24.556Z,-1.66
2023-02-04T21:21:51.562Z,-1.96
2023-02-04T21:24:18.607Z,-1.89
2023-02-04T21:26:45.201Z,-1.80
2023-02-04T21:29:11.781Z,-1.71
2023-02-04T21:31:38.646Z,-1.69
2023-02-04T21:34:06.074Z,-1.67
2023-02-04T21:36:32.750Z,-1.72
2023-02-04T21:38:59.581Z,-1.99
2023-02-04T21:41:26.199Z,-2.02
2023-02-04T21:43:52.722Z,-2.10
2023-02-04T21:46:20.005Z,-2.07
2023-02-04T21:48:46.590Z,-2.15
2023-02-04T21:51:14.053Z,-2.22
2023-02-04T21:53:40.819Z,-2.40
2023-02-04T21:56:08.734Z,-2.37
2023-02-04T21:58:35.573Z,-2.52
2023-02-04T22:01:02.105Z,-2.53
2023-02-04T22:03:28.833Z,-2.51
2023-02-04T22:05:55.465Z,-2.80
2023-02-04T22:08:22.074Z,-2.79
2023-02-04T22:10:48.613Z,-2.69
2023-02-04T22:13:33.730Z,-2.61
2023-02-04T22:16:00.317Z,-2.56
2023-02-04T22:18:28.793Z,-2.49
2023-02-04T22:20:55.412Z,-2.45
2023-02-04T22:23:21.921Z,-2.38
2023-02-04T22:25:48.442Z,-2.33
2023-02-04T22:28:15.048Z,-2.27
2023-02-04T22:30:41.692Z,-2.31
2023-02-04T22:33:08.250Z,-2.25
2023-02-04T22:35:36.751Z,-2.26
2023-02-04T22:38:03.514Z,-2.18
2023-02-04T22:40:30.271Z,-2.09
2023-02-04T22:42:56.818Z,-2.06
2023-02-04T22:45:23.303Z,-2.05
2023-02-04T22:47:50.525Z,-2.08
2023-02-04T22:50:17.193Z,-2.07
2023-02-04T22:52:43.965Z,-2.02
2023-02-04T22:55:10.643Z,-1.96
2023-02-04T22:57:37.193Z,-1.93
2023-02-04T23:00:09.072Z,-1.91
2023-02-04T23:02:35.652Z,-1.93
2023-02-04T23:05:02.784Z,-1.93
2023-02-04T23:07:29.395Z,-1.95
2023-02-04T23:09:55.972Z,-2.02
2023-02-04T23:12:22.521Z,-2.06
2023-02-04T23:14:49.591Z,-2.15
2023-02-04T23:17:17.637Z,-2.17
2023-02-04T23:19:44.673Z,-2.14
2023-02-04T23:22:13.155Z,-2.21
2023-02-04T23:24:41.322Z,-2.29
2023-02-04T23:27:10.893Z,-2.36
2023-02-04T23:29:39.527Z,-2.47
2023-02-04T23:32:06.620Z,-2.51
2023-02-04T23:34:33.230Z,-2.60
2023-02-04T23:36:59.798Z,-2.60
2023-02-04T23:39:26.505Z,-2.53
2023-02-04T23:41:53.183Z,-2.57
2023-02-04T23:44:19.858Z,-2.62
2023-02-04T23:46:46.449Z,-2.70
2023-02-04T23:49:13.054Z,-2.76
2023-02-04T23:51:39.637Z,-2.77
2023-02-04T23:54:07.150Z,-2.76
2023-02-04T23:56:33.810Z,-2.79
2023-02-04T23:59:01.220Z,-2.86
